createdAt,value
2022-08-14T00:01:35.637Z,19.79
2022-08-14T00:04:35.830Z,19.75
2022-08-14T00:07:07.583Z,19.77
2022-08-14T00:10:01.949Z,19.69
2022-08-14T00:12:33.945Z,19.63
2022-08-14T00:15:15.115Z,19.65
2022-08-14T00:17:48.097Z,19.65
2022-08-14T00:20:31.008Z,19.64
2022-08-14T00:23:12.086Z,19.61
2022-08-14T00:25:53.821Z,19.50
2022-08-14T00:28:35.207Z,19.56
2022-08-14T00:31:08.021Z,19.51
2022-08-14T00:33:50.430Z,19.50
2022-08-14T00:36:48.058Z,19.46
2022-08-14T00:39:18.233Z,19.42
2022-08-14T00:41:48.507Z,19.50
2022-08-14T00:44:21.471Z,19.44
2022-08-14T00:47:01.376Z,19.39
2022-08-14T00:52:25.304Z,19.36
2022-08-14T00:54:58.289Z,19.37
2022-08-14T00:57:30.120Z,19.35
2022-08-14T01:00:01.963Z,19.29
2022-08-14T01:02:32.392Z,19.19
2022-08-14T01:05:02.869Z,19.08
2022-08-14T01:07:38.959Z,19.11
2022-08-14T01:10:19.944Z,19.18
2022-08-14T01:12:51.985Z,19.19
2022-08-14T01:15:31.685Z,19.10
2022-08-14T01:18:32.852Z,19.06
2022-08-14T01:21:07.752Z,18.95
2022-08-14T01:23:41.694Z,19.00
2022-08-14T01:26:23.554Z,19.06
2022-08-14T01:29:07.117Z,19.02
2022-08-14T01:31:54.279Z,19.01
2022-08-14T01:35:19.830Z,18.99
2022-08-14T01:37:16.520Z,19.01
2022-08-14T01:39:47.225Z,19.02
2022-08-14T01:42:31.593Z,18.99
2022-08-14T01:45:12.747Z,19.05
2022-08-14T01:47:46.627Z,19.09
2022-08-14T01:50:20.289Z,19.07
2022-08-14T01:52:58.859Z,19.01
2022-08-14T01:55:33.578Z,18.99
2022-08-14T01:58:20.418Z,18.99
2022-08-14T02:00:56.397Z,19.02
2022-08-14T02:03:31.477Z,19.00
2022-08-14T02:06:31.852Z,19.08
2022-08-14T02:08:53.264Z,19.12
2022-08-14T02:11:26.316Z,19.18
2022-08-14T02:13:58.351Z,19.16
2022-08-14T02:16:31.259Z,19.14
2022-08-14T02:19:04.424Z,19.11
2022-08-14T02:21:43.772Z,19.14
2022-08-14T02:24:40.473Z,19.12
2022-08-14T02:28:24.682Z,19.07
2022-08-14T02:30:01.160Z,19.04
2022-08-14T02:32:36.620Z,19.01
2022-08-14T02:35:21.954Z,18.99
2022-08-14T02:37:54.760Z,19.13
2022-08-14T02:40:32.353Z,19.07
2022-08-14T02:43:07.600Z,19.00
2022-08-14T02:45:45.157Z,18.95
2022-08-14T02:49:01.971Z,18.88
2022-08-14T02:51:11.963Z,18.87
2022-08-14T02:53:46.406Z,18.91
2022-08-14T02:56:30.224Z,18.89
2022-08-14T02:59:10.874Z,18.89
2022-08-14T03:01:50.573Z,18.85
2022-08-14T03:04:20.771Z,18.93
2022-08-14T03:06:57.455Z,18.95
2022-08-14T03:09:41.931Z,18.96
2022-08-14T03:12:30.744Z,18.93
2022-08-14T03:15:14.435Z,18.91
2022-08-14T03:17:57.181Z,18.90
2022-08-14T03:20:31.234Z,18.87
2022-08-14T03:23:03.200Z,18.84
2022-08-14T03:25:37.614Z,18.76
2022-08-14T03:28:14.896Z,18.83
2022-08-14T03:30:59.976Z,18.94
2022-08-14T03:33:37.913Z,19.02
2022-08-14T03:37:29.634Z,19.08
2022-08-14T03:39:22.981Z,19.14
2022-08-14T03:42:01.750Z,19.08
2022-08-14T03:47:56.027Z,19.12
2022-08-14T03:50:42.079Z,19.14
2022-08-14T03:53:15.681Z,19.10
2022-08-14T03:55:45.015Z,19.10
2022-08-14T03:58:23.692Z,19.18
2022-08-14T04:01:04.457Z,19.13
2022-08-14T04:03:38.585Z,19.19
2022-08-14T04:06:09.798Z,19.20
2022-08-14T04:08:43.921Z,19.25
2022-08-14T04:11:13.771Z,19.27
2022-08-14T04:13:45.852Z,19.25
2022-08-14T04:16:23.956Z,19.23
2022-08-14T04:19:03.582Z,19.34
2022-08-14T04:21:49.384Z,19.49
2022-08-14T04:24:27.407Z,19.51
2022-08-14T04:26:56.676Z,19.51
2022-08-14T04:29:25.775Z,19.64
2022-08-14T04:33:00.016Z,19.63
2022-08-14T04:34:42.989Z,19.71
2022-08-14T04:38:10.617Z,19.85
2022-08-14T04:41:12.763Z,19.96
2022-08-14T04:43:41.573Z,20.01
2022-08-14T04:46:56.697Z,20.07
2022-08-14T04:49:15.892Z,20.14
2022-08-14T04:51:47.004Z,20.22
2022-08-14T04:54:29.050Z,20.20
2022-08-14T04:56:58.398Z,20.30
2022-08-14T04:59:27.905Z,20.42
2022-08-14T05:02:04.865Z,20.54
2022-08-14T05:04:39.890Z,20.59
2022-08-14T05:07:14.394Z,20.58
2022-08-14T05:09:50.295Z,20.63
2022-08-14T05:13:13.064Z,20.75
2022-08-14T05:15:43.966Z,20.81
2022-08-14T05:19:18.783Z,20.83
2022-08-14T05:22:00.405Z,20.85
2022-08-14T05:24:01.893Z,20.84
2022-08-14T05:26:33.057Z,20.88
2022-08-14T05:29:02.633Z,20.93
2022-08-14T05:31:39.869Z,21.02
2022-08-14T05:34:12.231Z,21.07
2022-08-14T05:36:50.643Z,21.08
2022-08-14T05:39:31.516Z,21.05
2022-08-14T05:42:09.908Z,21.11
2022-08-14T05:44:54.208Z,21.14
2022-08-14T05:47:38.901Z,21.17
2022-08-14T05:50:34.123Z,21.28
2022-08-14T05:53:09.530Z,21.28
2022-08-14T05:58:50.047Z,21.39
2022-08-14T06:01:32.566Z,21.49
2022-08-14T06:04:04.478Z,21.62
2022-08-14T06:06:38.233Z,21.57
2022-08-14T06:09:10.209Z,21.61
2022-08-14T06:11:57.241Z,21.73
2022-08-14T06:14:27.887Z,21.76
2022-08-14T06:16:57.759Z,21.78
2022-08-14T06:19:26.730Z,21.84
2022-08-14T06:21:58.238Z,21.92
2022-08-14T06:24:30.494Z,22.10
2022-08-14T06:27:10.125Z,22.12
2022-08-14T06:29:40.209Z,22.15
2022-08-14T06:32:36.497Z,22.27
2022-08-14T06:35:02.914Z,22.34
2022-08-14T06:38:04.512Z,22.44
2022-08-14T06:40:35.060Z,22.56
2022-08-14T06:43:08.543Z,22.67
2022-08-14T06:45:37.533Z,22.77
2022-08-14T06:48:25.415Z,22.90
2022-08-14T06:50:58.028Z,23.09
2022-08-14T06:53:30.413Z,23.12
2022-08-14T06:56:01.855Z,23.21
2022-08-14T06:58:32.138Z,23.44
2022-08-14T07:01:27.582Z,23.62
2022-08-14T07:04:23.981Z,23.69
2022-08-14T07:06:59.421Z,23.86
2022-08-14T07:09:43.954Z,24.08
2022-08-14T07:12:55.123Z,24.22
2022-08-14T07:15:09.129Z,24.29
2022-08-14T07:17:46.979Z,24.45
2022-08-14T07:20:31.152Z,24.47
2022-08-14T07:23:08.354Z,24.40
2022-08-14T07:25:46.754Z,24.44
2022-08-14T07:28:23.228Z,24.48
2022-08-14T07:31:04.984Z,24.54
2022-08-14T07:33:50.788Z,24.60
2022-08-14T07:36:27.930Z,24.63
2022-08-14T07:39:03.567Z,24.80
2022-08-14T07:41:42.656Z,24.83
2022-08-14T07:44:32.367Z,24.83
2022-08-14T07:47:07.710Z,24.77
2022-08-14T07:49:38.063Z,24.83
2022-08-14T07:52:06.968Z,24.91
2022-08-14T07:54:42.867Z,24.91
2022-08-14T07:57:22.375Z,24.94
2022-08-14T07:59:54.988Z,24.94
2022-08-14T08:02:24.831Z,24.87
2022-08-14T08:04:59.324Z,24.93
2022-08-14T08:07:32.079Z,24.93
2022-08-14T08:11:01.360Z,24.98
2022-08-14T08:13:24.573Z,24.93
2022-08-14T08:16:00.195Z,24.94
2022-08-14T08:18:30.989Z,25.09
2022-08-14T08:21:01.176Z,25.22
2022-08-14T08:23:40.090Z,25.28
2022-08-14T08:26:11.560Z,25.46
2022-08-14T08:28:43.835Z,25.62
2022-08-14T08:31:14.462Z,25.70
2022-08-14T08:33:49.408Z,26.04
2022-08-14T08:36:18.481Z,26.28
2022-08-14T08:39:14.464Z,26.53
2022-08-14T08:41:49.476Z,26.66
2022-08-14T08:44:32.499Z,26.77
2022-08-14T08:47:06.475Z,26.82
2022-08-14T08:49:48.396Z,26.89
2022-08-14T08:52:42.299Z,26.99
2022-08-14T08:55:14.001Z,27.03
2022-08-14T08:57:44.224Z,27.01
2022-08-14T09:00:25.060Z,26.94
2022-08-14T09:03:10.065Z,26.82
2022-08-14T09:05:39.879Z,26.76
2022-08-14T09:08:26.525Z,27.03
2022-08-14T09:11:19.513Z,27.10
2022-08-14T09:13:55.270Z,27.07
2022-08-14T09:16:26.263Z,27.25
2022-08-14T09:18:56.041Z,27.33
2022-08-14T09:21:31.088Z,27.30
2022-08-14T09:24:29.166Z,27.33
2022-08-14T09:26:49.476Z,27.57
2022-08-14T09:29:22.794Z,27.84
2022-08-14T09:31:57.650Z,28.04
2022-08-14T09:35:08.406Z,28.55
2022-08-14T09:37:51.240Z,28.81
2022-08-14T09:40:38.805Z,29.20
2022-08-14T09:43:23.676Z,29.64
2022-08-14T09:45:52.929Z,29.72
2022-08-14T09:48:30.587Z,29.51
2022-08-14T09:54:18.883Z,29.18
2022-08-14T09:56:57.291Z,29.20
2022-08-14T09:59:33.584Z,28.99
2022-08-14T10:02:01.391Z,28.79
2022-08-14T10:04:35.766Z,28.40
2022-08-14T10:07:08.170Z,28.16
2022-08-14T10:09:59.515Z,27.72
2022-08-14T10:13:05.002Z,27.36
2022-08-14T10:15:37.932Z,27.14
2022-08-14T10:18:13.474Z,26.74
2022-08-14T10:21:09.730Z,26.56
2022-08-14T10:23:50.144Z,26.51
2022-08-14T10:26:22.950Z,26.35
2022-08-14T10:29:19.855Z,26.20
2022-08-14T10:31:59.567Z,26.03
2022-08-14T10:34:38.608Z,25.84
2022-08-14T10:37:14.570Z,25.80
2022-08-14T10:40:01.749Z,25.87
2022-08-14T10:42:41.543Z,25.89
2022-08-14T10:45:26.281Z,25.76
2022-08-14T10:48:07.653Z,25.71
2022-08-14T10:50:42.490Z,25.64
2022-08-14T10:53:11.226Z,25.55
2022-08-14T10:55:45.725Z,25.31
2022-08-14T10:58:17.137Z,25.16
2022-08-14T11:00:57.349Z,24.97
2022-08-14T11:03:56.225Z,24.87
2022-08-14T11:06:20.273Z,24.71
2022-08-14T11:08:50.723Z,24.65
2022-08-14T11:11:18.873Z,24.61
2022-08-14T11:13:47.025Z,24.59
2022-08-14T11:16:16.320Z,24.62
2022-08-14T11:18:56.007Z,24.61
2022-08-14T11:21:30.141Z,24.54
2022-08-14T11:23:59.401Z,24.53
2022-08-14T11:26:30.338Z,24.46
2022-08-14T11:29:02.831Z,24.34
2022-08-14T11:31:38.737Z,24.29
2022-08-14T11:34:29.680Z,24.30
2022-08-14T11:37:03.911Z,24.34
2022-08-14T11:39:47.227Z,24.38
2022-08-14T11:42:57.775Z,24.47
2022-08-14T11:45:23.166Z,24.56
2022-08-14T11:48:11.098Z,24.59
2022-08-14T11:50:44.067Z,24.71
2022-08-14T11:53:32.131Z,24.81
2022-08-14T11:56:08.036Z,25.04
2022-08-14T11:58:40.201Z,25.16
2022-08-14T12:01:13.742Z,25.29
2022-08-14T12:03:52.238Z,25.42
2022-08-14T12:06:39.686Z,25.64
2022-08-14T12:09:14.727Z,25.81
2022-08-14T12:11:46.895Z,25.92
2022-08-14T12:14:34.765Z,26.16
2022-08-14T12:17:13.231Z,26.52
2022-08-14T12:19:45.905Z,26.83
2022-08-14T12:22:30.279Z,27.06
2022-08-14T12:35:00.355Z,26.76
2022-08-14T12:37:32.283Z,26.74
2022-08-14T12:40:10.481Z,26.84
2022-08-14T12:42:40.703Z,26.92
2022-08-14T12:45:17.191Z,26.95
2022-08-14T12:47:44.598Z,27.05
2022-08-14T12:50:18.514Z,27.22
2022-08-14T12:52:58.751Z,27.23
2022-08-14T12:56:21.370Z,27.19
2022-08-14T12:58:51.500Z,27.02
2022-08-14T13:01:31.121Z,26.97
2022-08-14T13:04:13.868Z,26.86
2022-08-14T13:06:50.725Z,26.58
2022-08-14T13:09:19.590Z,26.28
2022-08-14T13:12:32.661Z,26.01
2022-08-14T13:14:53.458Z,25.64
2022-08-14T13:17:23.886Z,25.29
2022-08-14T13:19:58.144Z,25.02
2022-08-14T13:22:38.243Z,24.75
2022-08-14T13:25:17.271Z,24.60
2022-08-14T13:28:05.138Z,24.32
2022-08-14T13:30:50.815Z,24.11
2022-08-14T13:33:23.220Z,23.83
2022-08-14T13:35:51.848Z,23.64
2022-08-14T13:38:22.654Z,23.37
2022-08-14T13:40:55.605Z,23.26
2022-08-14T13:43:31.681Z,23.07
2022-08-14T13:46:14.570Z,22.97
2022-08-14T13:48:44.005Z,22.95
2022-08-14T13:51:13.929Z,22.93
2022-08-14T13:54:08.299Z,22.84
2022-08-14T13:56:48.558Z,22.83
2022-08-14T13:59:20.571Z,22.75
2022-08-14T14:02:09.288Z,22.69
2022-08-14T14:04:43.123Z,22.67
2022-08-14T14:07:17.561Z,22.63
2022-08-14T14:09:53.011Z,22.52
2022-08-14T14:12:38.584Z,22.51
2022-08-14T14:15:12.299Z,22.37
2022-08-14T14:17:40.694Z,22.44
2022-08-14T14:20:35.190Z,22.41
2022-08-14T14:23:11.506Z,22.33
2022-08-14T14:25:56.942Z,22.31
2022-08-14T14:28:34.475Z,22.30
2022-08-14T14:31:06.204Z,22.33
2022-08-14T14:33:58.181Z,22.26
2022-08-14T14:36:31.091Z,22.20
2022-08-14T14:39:05.188Z,22.13
2022-08-14T14:41:44.143Z,22.10
2022-08-14T14:44:16.150Z,22.07
2022-08-14T14:46:53.193Z,22.04
2022-08-14T14:49:32.010Z,22.08
2022-08-14T14:52:15.284Z,22.09
2022-08-14T14:54:54.216Z,22.14
2022-08-14T14:57:21.830Z,22.09
2022-08-14T14:59:52.870Z,22.13
2022-08-14T15:03:01.028Z,22.14
2022-08-14T15:08:16.892Z,22.03
2022-08-14T15:10:54.935Z,21.97
2022-08-14T15:13:24.349Z,21.91
2022-08-14T15:15:59.804Z,21.88
2022-08-14T15:18:37.570Z,21.74
2022-08-14T15:21:44.525Z,21.64
2022-08-14T15:28:21.417Z,21.53
2022-08-14T15:34:55.983Z,21.23
2022-08-14T15:37:33.874Z,21.22
2022-08-14T15:40:16.354Z,21.18
2022-08-14T15:43:56.789Z,21.08
2022-08-14T15:46:43.310Z,20.90
2022-08-14T15:49:33.218Z,20.75
2022-08-14T15:52:13.785Z,20.70
2022-08-14T16:00:44.453Z,20.60
2022-08-14T16:06:32.551Z,20.34
2022-08-14T16:09:07.901Z,20.28
2022-08-14T16:11:50.743Z,20.21
2022-08-14T16:15:02.345Z,20.15
2022-08-14T16:17:44.223Z,20.14
2022-08-14T16:20:42.236Z,20.13
2022-08-14T16:23:21.039Z,20.05
2022-08-14T16:25:59.813Z,20.00
2022-08-14T16:28:57.278Z,20.01
2022-08-14T16:31:37.145Z,19.96
2022-08-14T16:36:59.899Z,19.97
2022-08-14T16:39:28.616Z,20.02
2022-08-14T16:42:10.531Z,20.06
2022-08-14T16:47:39.332Z,20.17
2022-08-14T16:53:43.007Z,20.29
2022-08-14T16:59:30.281Z,20.43
2022-08-14T17:02:24.059Z,20.40
2022-08-14T17:05:03.610Z,20.38
2022-08-14T17:07:44.794Z,20.36
2022-08-14T17:13:59.983Z,20.25
2022-08-14T17:16:32.678Z,20.24
2022-08-14T17:25:02.902Z,20.08
2022-08-14T17:31:08.688Z,19.88
2022-08-14T17:33:44.221Z,19.88
2022-08-14T17:34:07.671Z,19.99
2022-08-14T17:37:39.869Z,19.86
2022-08-14T17:40:26.881Z,19.79
2022-08-14T17:43:02.861Z,19.78
2022-08-14T17:49:14.506Z,19.65
2022-08-14T17:54:34.662Z,19.65
2022-08-14T17:57:12.949Z,19.66
2022-08-14T17:57:58.461Z,19.64
2022-08-14T17:59:44.271Z,19.66
2022-08-14T18:02:19.445Z,19.67
2022-08-14T18:04:51.132Z,19.67
2022-08-14T18:07:50.538Z,19.72
2022-08-14T18:10:54.862Z,19.71
2022-08-14T18:13:51.076Z,19.71
2022-08-14T18:19:05.933Z,19.62
2022-08-14T18:21:41.767Z,19.61
2022-08-14T18:27:22.763Z,19.41
2022-08-14T18:29:55.921Z,19.42
2022-08-14T18:32:56.331Z,19.49
2022-08-14T18:35:58.518Z,19.54
2022-08-14T18:38:45.871Z,19.52
2022-08-14T18:42:05.632Z,19.50
2022-08-14T18:44:53.403Z,19.41
2022-08-14T18:48:16.146Z,19.30
2022-08-14T18:50:58.319Z,19.25
2022-08-14T18:53:34.327Z,19.32
2022-08-14T18:56:10.299Z,19.35
2022-08-14T18:59:01.308Z,19.25
2022-08-14T19:01:33.969Z,19.22
2022-08-14T19:04:02.770Z,19.19
2022-08-14T19:07:10.360Z,19.21
2022-08-14T19:10:01.249Z,19.25
2022-08-14T19:13:21.938Z,19.24
2022-08-14T19:16:08.821Z,19.20
2022-08-14T19:19:04.219Z,19.24
2022-08-14T19:21:45.383Z,19.29
2022-08-14T19:24:29.243Z,19.31
2022-08-14T19:27:23.858Z,19.25
2022-08-14T19:30:19.387Z,19.21
2022-08-14T19:32:53.095Z,19.30
2022-08-14T19:38:54.352Z,19.12
2022-08-14T19:41:51.906Z,19.04
2022-08-14T19:44:31.758Z,19.08
2022-08-14T19:47:06.063Z,19.08
2022-08-14T19:50:24.519Z,19.07
2022-08-14T19:53:02.186Z,19.09
2022-08-14T19:55:34.646Z,19.04
2022-08-14T19:58:54.431Z,19.03
2022-08-14T20:01:48.949Z,19.10
2022-08-14T20:04:57.360Z,19.09
2022-08-14T20:08:06.190Z,19.08
2022-08-14T20:14:20.352Z,19.07
2022-08-14T20:17:06.022Z,19.10
2022-08-14T20:19:42.248Z,19.11
2022-08-14T20:25:27.944Z,19.15
2022-08-14T20:28:29.979Z,19.12
2022-08-14T20:31:19.621Z,19.10
2022-08-14T20:35:11.051Z,19.04
2022-08-14T20:37:22.526Z,19.00
2022-08-14T20:39:53.899Z,18.98
2022-08-14T20:42:49.448Z,19.01
2022-08-14T20:48:13.328Z,18.99
2022-08-14T20:50:47.427Z,19.06
2022-08-14T20:56:48.532Z,19.08
2022-08-14T21:03:52.656Z,18.97
2022-08-14T21:27:57.505Z,18.90
2022-08-14T21:30:51.031Z,18.93
2022-08-14T21:33:23.373Z,18.87
2022-08-14T21:38:46.645Z,18.90
2022-08-14T21:41:43.433Z,18.87
2022-08-14T21:44:18.242Z,18.90
2022-08-14T21:46:56.973Z,18.94
2022-08-14T21:49:59.784Z,18.99
2022-08-14T21:52:50.430Z,19.05
2022-08-14T21:55:26.853Z,18.91
2022-08-14T21:58:53.259Z,18.94
2022-08-14T22:00:52.392Z,18.83
2022-08-14T22:03:27.188Z,18.89
2022-08-14T22:06:05.130Z,18.82
2022-08-14T22:12:06.929Z,18.79
2022-08-14T22:14:43.859Z,18.77
2022-08-14T22:17:16.478Z,18.72
2022-08-14T22:19:54.736Z,18.68
2022-08-14T22:23:15.199Z,18.70
2022-08-14T22:25:40.877Z,18.74
2022-08-14T22:28:14.538Z,18.72
2022-08-14T22:30:55.122Z,18.68
2022-08-14T22:33:30.961Z,18.66
2022-08-14T22:36:08.305Z,18.72
2022-08-14T22:38:39.107Z,18.67
2022-08-14T22:41:27.943Z,18.72
2022-08-14T22:44:03.621Z,18.75
2022-08-14T22:46:34.098Z,18.67
2022-08-14T22:49:15.406Z,18.66
2022-08-14T22:51:50.339Z,18.65
2022-08-14T22:54:52.827Z,18.65
2022-08-14T22:57:19.632Z,18.67
2022-08-14T22:59:50.695Z,18.68
2022-08-14T23:02:39.356Z,18.72
2022-08-14T23:05:16.148Z,18.76
2022-08-14T23:09:01.587Z,18.74
2022-08-14T23:10:48.973Z,18.72
2022-08-14T23:13:22.462Z,18.77
2022-08-14T23:15:54.916Z,18.79
2022-08-14T23:18:25.053Z,18.76
2022-08-14T23:21:15.270Z,18.73
2022-08-14T23:24:05.408Z,18.73
2022-08-14T23:26:48.352Z,18.74
2022-08-14T23:29:21.075Z,18.88
2022-08-14T23:31:52.095Z,18.79
2022-08-14T23:34:22.295Z,18.65
2022-08-14T23:36:58.543Z,18.66
2022-08-14T23:39:34.469Z,18.71
2022-08-14T23:42:07.726Z,18.72
2022-08-14T23:44:38.307Z,18.64
2022-08-14T23:47:26.221Z,18.60
2022-08-14T23:50:03.540Z,18.61
2022-08-14T23:52:50.526Z,18.63
2022-08-14T23:58:28.996Z,18.71
